sensor_id;sensor_type;location;lat;lon;timestamp;P1;durP1;ratioP1;P2;durP2;ratioP2
71048;SDS011;58704;53.358;-6.238;2023-06-22T00:01:27;4.50;;;3.43;;
71048;SDS011;58704;53.358;-6.238;2023-06-22T00:03:52;5.60;;;3.30;;
71048;SDS011;58704;53.358;-6.238;2023-06-22T00:06:18;5.57;;;3.20;;
71048;SDS011;58704;53.358;-6.238;2023-06-22T00:08:43;5.57;;;3.10;;
71048;SDS011;58704;53.358;-6.238;2023-06-22T00:11:08;8.23;;;3.67;;
71048;SDS011;58704;53.358;-6.238;2023-06-22T00:13:34;4.40;;;2.60;;
71048;SDS011;58704;53.358;-6.238;2023-06-22T00:15:59;5.40;;;3.08;;
71048;SDS011;58704;53.358;-6.238;2023-06-22T00:18:25;7.30;;;2.80;;
71048;SDS011;58704;53.358;-6.238;2023-06-22T00:20:53;10.07;;;3.25;;
71048;SDS011;58704;53.358;-6.238;2023-06-22T00:23:22;4.53;;;3.03;;
71048;SDS011;58704;53.358;-6.238;2023-06-22T00:25:48;6.28;;;3.42;;
71048;SDS011;58704;53.358;-6.238;2023-06-22T00:28:14;5.60;;;3.00;;
71048;SDS011;58704;53.358;-6.238;2023-06-22T00:30:39;5.23;;;3.10;;
71048;SDS011;58704;53.358;-6.238;2023-06-22T00:33:05;6.07;;;3.00;;
71048;SDS011;58704;53.358;-6.238;2023-06-22T00:35:32;4.97;;;2.72;;
71048;SDS011;58704;53.358;-6.238;2023-06-22T00:37:58;8.93;;;2.80;;
71048;SDS011;58704;53.358;-6.238;2023-06-22T00:40:29;5.83;;;3.20;;
71048;SDS011;58704;53.358;-6.238;2023-06-22T00:42:54;6.30;;;3.25;;
71048;SDS011;58704;53.358;-6.238;2023-06-22T00:45:20;3.45;;;2.60;;
71048;SDS011;58704;53.358;-6.238;2023-06-22T00:47:48;4.35;;;2.97;;
71048;SDS011;58704;53.358;-6.238;2023-06-22T00:50:18;3.65;;;2.85;;
71048;SDS011;58704;53.358;-6.238;2023-06-22T00:52:47;5.50;;;2.70;;
71048;SDS011;58704;53.358;-6.238;2023-06-22T00:55:14;7.32;;;3.35;;
71048;SDS011;58704;53.358;-6.238;2023-06-22T00:57:43;5.93;;;3.35;;
71048;SDS011;58704;53.358;-6.238;2023-06-22T01:00:11;5.22;;;3.97;;
71048;SDS011;58704;53.358;-6.238;2023-06-22T01:02:42;6.82;;;3.88;;
71048;SDS011;58704;53.358;-6.238;2023-06-22T01:05:10;7.77;;;3.50;;
71048;SDS011;58704;53.358;-6.238;2023-06-22T01:08:12;8.93;;;3.97;;
71048;SDS011;58704;53.358;-6.238;2023-06-22T01:10:50;4.45;;;3.42;;
71048;SDS011;58704;53.358;-6.238;2023-06-22T01:15:50;4.90;;;3.42;;
71048;SDS011;58704;53.358;-6.238;2023-06-22T01:18:18;6.33;;;4.07;;
71048;SDS011;58704;53.358;-6.238;2023-06-22T01:20:44;6.28;;;3.70;;
71048;SDS011;58704;53.358;-6.238;2023-06-22T01:23:21;5.75;;;3.60;;
71048;SDS011;58704;53.358;-6.238;2023-06-22T01:25:54;7.55;;;3.63;;
71048;SDS011;58704;53.358;-6.238;2023-06-22T01:31:13;8.00;;;3.38;;
71048;SDS011;58704;53.358;-6.238;2023-06-22T01:33:42;4.60;;;3.10;;
71048;SDS011;58704;53.358;-6.238;2023-06-22T01:36:08;5.40;;;3.58;;
71048;SDS011;58704;53.358;-6.238;2023-06-22T01:38:34;4.63;;;3.38;;
71048;SDS011;58704;53.358;-6.238;2023-06-22T01:41:01;5.20;;;3.10;;
71048;SDS011;58704;53.358;-6.238;2023-06-22T01:43:27;6.18;;;3.38;;
71048;SDS011;58704;53.358;-6.238;2023-06-22T01:45:54;6.95;;;3.50;;
71048;SDS011;58704;53.358;-6.238;2023-06-22T01:48:19;6.05;;;3.47;;
71048;SDS011;58704;53.358;-6.238;2023-06-22T01:50:45;7.27;;;3.60;;
71048;SDS011;58704;53.358;-6.238;2023-06-22T01:53:11;9.02;;;4.07;;
71048;SDS011;58704;53.358;-6.238;2023-06-22T01:55:36;4.23;;;3.43;;
71048;SDS011;58704;53.358;-6.238;2023-06-22T01:58:01;6.40;;;3.50;;
71048;SDS011;58704;53.358;-6.238;2023-06-22T02:00:28;8.73;;;4.13;;
71048;SDS011;58704;53.358;-6.238;2023-06-22T02:02:59;5.85;;;3.00;;
71048;SDS011;58704;53.358;-6.238;2023-06-22T02:05:26;8.80;;;3.78;;
71048;SDS011;58704;53.358;-6.238;2023-06-22T02:08:04;6.47;;;3.42;;
71048;SDS011;58704;53.358;-6.238;2023-06-22T02:10:34;8.32;;;3.60;;
71048;SDS011;58704;53.358;-6.238;2023-06-22T02:13:01;6.47;;;3.70;;
71048;SDS011;58704;53.358;-6.238;2023-06-22T02:15:30;7.00;;;3.80;;
71048;SDS011;58704;53.358;-6.238;2023-06-22T02:17:55;5.32;;;3.30;;
71048;SDS011;58704;53.358;-6.238;2023-06-22T02:20:21;5.87;;;3.57;;
71048;SDS011;58704;53.358;-6.238;2023-06-22T02:22:46;4.77;;;3.43;;
71048;SDS011;58704;53.358;-6.238;2023-06-22T02:25:12;5.47;;;3.73;;
71048;SDS011;58704;53.358;-6.238;2023-06-22T02:27:37;6.63;;;3.70;;
71048;SDS011;58704;53.358;-6.238;2023-06-22T02:30:06;5.53;;;3.93;;
71048;SDS011;58704;53.358;-6.238;2023-06-22T02:32:35;6.18;;;4.07;;
71048;SDS011;58704;53.358;-6.238;2023-06-22T02:35:00;5.28;;;3.70;;
71048;SDS011;58704;53.358;-6.238;2023-06-22T02:37:29;5.13;;;3.77;;
71048;SDS011;58704;53.358;-6.238;2023-06-22T02:39:55;6.18;;;3.67;;
71048;SDS011;58704;53.358;-6.238;2023-06-22T02:42:21;5.17;;;3.93;;
71048;SDS011;58704;53.358;-6.238;2023-06-22T02:44:46;5.63;;;3.33;;
71048;SDS011;58704;53.358;-6.238;2023-06-22T02:47:12;5.57;;;3.65;;
71048;SDS011;58704;53.358;-6.238;2023-06-22T02:49:37;6.53;;;3.73;;
71048;SDS011;58704;53.358;-6.238;2023-06-22T02:52:03;4.37;;;3.80;;
71048;SDS011;58704;53.358;-6.238;2023-06-22T02:54:28;5.57;;;3.80;;
71048;SDS011;58704;53.358;-6.238;2023-06-22T02:56:54;8.07;;;3.70;;
71048;SDS011;58704;53.358;-6.238;2023-06-22T02:59:19;8.23;;;4.07;;
71048;SDS011;58704;53.358;-6.238;2023-06-22T03:01:49;7.78;;;4.13;;
71048;SDS011;58704;53.358;-6.238;2023-06-22T03:04:15;5.53;;;4.28;;
71048;SDS011;58704;53.358;-6.238;2023-06-22T03:06:40;5.70;;;3.63;;
71048;SDS011;58704;53.358;-6.238;2023-06-22T03:09:06;5.68;;;3.78;;
71048;SDS011;58704;53.358;-6.238;2023-06-22T03:11:32;10.67;;;4.10;;
71048;SDS011;58704;53.358;-6.238;2023-06-22T03:13:58;7.00;;;3.20;;
71048;SDS011;58704;53.358;-6.238;2023-06-22T03:16:24;5.82;;;3.55;;
71048;SDS011;58704;53.358;-6.238;2023-06-22T03:18:49;6.20;;;3.80;;
71048;SDS011;58704;53.358;-6.238;2023-06-22T03:21:14;6.43;;;4.20;;
71048;SDS011;58704;53.358;-6.238;2023-06-22T03:23:41;6.25;;;3.92;;
71048;SDS011;58704;53.358;-6.238;2023-06-22T03:26:07;7.47;;;4.03;;
71048;SDS011;58704;53.358;-6.238;2023-06-22T03:28:33;5.93;;;4.33;;
71048;SDS011;58704;53.358;-6.238;2023-06-22T03:30:58;7.03;;;3.97;;
71048;SDS011;58704;53.358;-6.238;2023-06-22T03:33:24;5.90;;;3.87;;
71048;SDS011;58704;53.358;-6.238;2023-06-22T03:35:49;5.93;;;4.23;;
71048;SDS011;58704;53.358;-6.238;2023-06-22T03:38:15;8.00;;;4.27;;
71048;SDS011;58704;53.358;-6.238;2023-06-22T03:40:41;5.40;;;3.70;;
71048;SDS011;58704;53.358;-6.238;2023-06-22T03:43:06;7.83;;;4.17;;
71048;SDS011;58704;53.358;-6.238;2023-06-22T03:45:32;6.23;;;4.20;;
71048;SDS011;58704;53.358;-6.238;2023-06-22T03:47:57;8.15;;;4.47;;
71048;SDS011;58704;53.358;-6.238;2023-06-22T03:50:22;8.17;;;3.97;;
71048;SDS011;58704;53.358;-6.238;2023-06-22T03:52:48;7.43;;;4.00;;
71048;SDS011;58704;53.358;-6.238;2023-06-22T03:55:13;7.00;;;4.50;;
71048;SDS011;58704;53.358;-6.238;2023-06-22T03:57:39;5.75;;;4.07;;
71048;SDS011;58704;53.358;-6.238;2023-06-22T04:00:04;9.90;;;4.30;;
71048;SDS011;58704;53.358;-6.238;2023-06-22T04:02:33;8.02;;;4.25;;
71048;SDS011;58704;53.358;-6.238;2023-06-22T04:04:58;9.70;;;4.67;;
71048;SDS011;58704;53.358;-6.238;2023-06-22T04:07:24;7.43;;;4.80;;
71048;SDS011;58704;53.358;-6.238;2023-06-22T04:09:49;7.53;;;4.70;;
71048;SDS011;58704;53.358;-6.238;2023-06-22T04:12:14;7.45;;;4.57;;
71048;SDS011;58704;53.358;-6.238;2023-06-22T04:14:40;6.10;;;4.50;;
71048;SDS011;58704;53.358;-6.238;2023-06-22T04:17:05;6.80;;;4.60;;
71048;SDS011;58704;53.358;-6.238;2023-06-22T04:19:31;6.63;;;4.47;;
71048;SDS011;58704;53.358;-6.238;2023-06-22T04:21:56;7.93;;;4.80;;
71048;SDS011;58704;53.358;-6.238;2023-06-22T04:24:21;6.93;;;4.82;;
71048;SDS011;58704;53.358;-6.238;2023-06-22T04:26:47;6.90;;;4.60;;
71048;SDS011;58704;53.358;-6.238;2023-06-22T04:29:12;6.63;;;4.03;;
71048;SDS011;58704;53.358;-6.238;2023-06-22T04:31:38;8.65;;;4.85;;
71048;SDS011;58704;53.358;-6.238;2023-06-22T04:34:04;9.10;;;4.77;;
71048;SDS011;58704;53.358;-6.238;2023-06-22T04:36:40;8.20;;;4.75;;
71048;SDS011;58704;53.358;-6.238;2023-06-22T04:39:06;11.45;;;4.80;;
71048;SDS011;58704;53.358;-6.238;2023-06-22T04:41:34;8.03;;;4.53;;
71048;SDS011;58704;53.358;-6.238;2023-06-22T04:44:12;5.80;;;4.47;;
71048;SDS011;58704;53.358;-6.238;2023-06-22T04:46:55;7.20;;;4.82;;
71048;SDS011;58704;53.358;-6.238;2023-06-22T04:49:25;9.73;;;4.80;;
71048;SDS011;58704;53.358;-6.238;2023-06-22T04:52:01;10.05;;;5.32;;
71048;SDS011;58704;53.358;-6.238;2023-06-22T04:54:31;7.70;;;4.87;;
71048;SDS011;58704;53.358;-6.238;2023-06-22T04:57:02;11.23;;;5.38;;
71048;SDS011;58704;53.358;-6.238;2023-06-22T04:59:29;9.27;;;5.57;;
71048;SDS011;58704;53.358;-6.238;2023-06-22T05:01:55;12.25;;;6.15;;
71048;SDS011;58704;53.358;-6.238;2023-06-22T05:04:25;11.13;;;5.93;;
71048;SDS011;58704;53.358;-6.238;2023-06-22T05:06:52;9.87;;;6.10;;
71048;SDS011;58704;53.358;-6.238;2023-06-22T05:09:18;14.38;;;6.80;;
71048;SDS011;58704;53.358;-6.238;2023-06-22T05:11:47;10.10;;;6.82;;
71048;SDS011;58704;53.358;-6.238;2023-06-22T05:14:12;10.67;;;6.60;;
71048;SDS011;58704;53.358;-6.238;2023-06-22T05:16:38;10.38;;;7.28;;
71048;SDS011;58704;53.358;-6.238;2023-06-22T05:19:05;8.63;;;6.30;;
71048;SDS011;58704;53.358;-6.238;2023-06-22T05:21:31;9.13;;;7.17;;
71048;SDS011;58704;53.358;-6.238;2023-06-22T05:23:57;11.60;;;7.32;;
71048;SDS011;58704;53.358;-6.238;2023-06-22T05:26:27;12.18;;;8.07;;
71048;SDS011;58704;53.358;-6.238;2023-06-22T05:28:53;17.80;;;7.93;;
71048;SDS011;58704;53.358;-6.238;2023-06-22T05:31:19;12.82;;;8.05;;
71048;SDS011;58704;53.358;-6.238;2023-06-22T05:33:45;10.27;;;7.17;;
71048;SDS011;58704;53.358;-6.238;2023-06-22T05:36:11;11.48;;;7.55;;
71048;SDS011;58704;53.358;-6.238;2023-06-22T05:38:37;11.55;;;6.75;;
71048;SDS011;58704;53.358;-6.238;2023-06-22T05:41:03;14.30;;;7.57;;
71048;SDS011;58704;53.358;-6.238;2023-06-22T05:43:28;13.35;;;6.53;;
71048;SDS011;58704;53.358;-6.238;2023-06-22T05:45:54;13.00;;;6.67;;
71048;SDS011;58704;53.358;-6.238;2023-06-22T05:48:19;11.07;;;6.83;;
71048;SDS011;58704;53.358;-6.238;2023-06-22T05:50:44;12.20;;;6.57;;
71048;SDS011;58704;53.358;-6.238;2023-06-22T05:53:10;11.23;;;7.10;;
71048;SDS011;58704;53.358;-6.238;2023-06-22T05:55:35;10.67;;;6.33;;
71048;SDS011;58704;53.358;-6.238;2023-06-22T05:58:01;9.10;;;6.10;;
71048;SDS011;58704;53.358;-6.238;2023-06-22T06:00:28;11.75;;;6.28;;
71048;SDS011;58704;53.358;-6.238;2023-06-22T06:02:53;9.00;;;6.23;;
71048;SDS011;58704;53.358;-6.238;2023-06-22T06:05:18;9.73;;;6.57;;
71048;SDS011;58704;53.358;-6.238;2023-06-22T06:07:44;11.27;;;6.57;;
71048;SDS011;58704;53.358;-6.238;2023-06-22T06:10:10;9.50;;;6.20;;
71048;SDS011;58704;53.358;-6.238;2023-06-22T06:12:36;13.02;;;6.35;;
71048;SDS011;58704;53.358;-6.238;2023-06-22T06:15:02;10.93;;;7.23;;
71048;SDS011;58704;53.358;-6.238;2023-06-22T06:17:28;9.80;;;6.50;;
71048;SDS011;58704;53.358;-6.238;2023-06-22T06:19:53;11.70;;;6.77;;
71048;SDS011;58704;53.358;-6.238;2023-06-22T06:22:18;13.52;;;6.32;;
71048;SDS011;58704;53.358;-6.238;2023-06-22T06:24:46;10.23;;;6.67;;
71048;SDS011;58704;53.358;-6.238;2023-06-22T06:27:12;8.57;;;5.68;;
71048;SDS011;58704;53.358;-6.238;2023-06-22T06:29:38;14.65;;;7.60;;
71048;SDS011;58704;53.358;-6.238;2023-06-22T06:32:04;9.37;;;6.53;;
71048;SDS011;58704;53.358;-6.238;2023-06-22T06:34:29;8.45;;;5.95;;
71048;SDS011;58704;53.358;-6.238;2023-06-22T06:36:55;8.57;;;5.93;;
71048;SDS011;58704;53.358;-6.238;2023-06-22T06:39:20;12.60;;;6.20;;
71048;SDS011;58704;53.358;-6.238;2023-06-22T06:41:46;10.35;;;6.22;;
71048;SDS011;58704;53.358;-6.238;2023-06-22T06:44:11;9.13;;;5.90;;
71048;SDS011;58704;53.358;-6.238;2023-06-22T06:46:37;9.00;;;5.60;;
71048;SDS011;58704;53.358;-6.238;2023-06-22T06:49:02;11.02;;;6.00;;
71048;SDS011;58704;53.358;-6.238;2023-06-22T06:51:28;8.43;;;5.77;;
71048;SDS011;58704;53.358;-6.238;2023-06-22T06:53:53;7.50;;;5.47;;
71048;SDS011;58704;53.358;-6.238;2023-06-22T06:56:19;12.20;;;6.10;;
71048;SDS011;58704;53.358;-6.238;2023-06-22T06:58:44;8.47;;;5.93;;
71048;SDS011;58704;53.358;-6.238;2023-06-22T07:01:11;9.80;;;5.80;;
71048;SDS011;58704;53.358;-6.238;2023-06-22T07:03:37;7.43;;;5.27;;
71048;SDS011;58704;53.358;-6.238;2023-06-22T07:06:03;11.27;;;5.57;;
71048;SDS011;58704;53.358;-6.238;2023-06-22T07:08:28;8.87;;;5.30;;
71048;SDS011;58704;53.358;-6.238;2023-06-22T07:10:54;6.50;;;5.17;;
71048;SDS011;58704;53.358;-6.238;2023-06-22T07:13:19;8.32;;;5.40;;
71048;SDS011;58704;53.358;-6.238;2023-06-22T07:15:44;7.67;;;5.07;;
71048;SDS011;58704;53.358;-6.238;2023-06-22T07:18:10;9.47;;;5.03;;
71048;SDS011;58704;53.358;-6.238;2023-06-22T07:20:35;8.60;;;5.20;;
71048;SDS011;58704;53.358;-6.238;2023-06-22T07:23:01;6.50;;;5.37;;
71048;SDS011;58704;53.358;-6.238;2023-06-22T07:25:26;9.20;;;5.43;;
71048;SDS011;58704;53.358;-6.238;2023-06-22T07:28:02;7.30;;;5.10;;
71048;SDS011;58704;53.358;-6.238;2023-06-22T07:30:29;6.95;;;4.97;;
71048;SDS011;58704;53.358;-6.238;2023-06-22T07:32:55;8.77;;;4.57;;
71048;SDS011;58704;53.358;-6.238;2023-06-22T07:35:21;5.65;;;4.13;;
71048;SDS011;58704;53.358;-6.238;2023-06-22T07:37:46;8.83;;;4.63;;
71048;SDS011;58704;53.358;-6.238;2023-06-22T07:40:12;6.95;;;4.47;;
71048;SDS011;58704;53.358;-6.238;2023-06-22T07:42:37;9.33;;;4.63;;
71048;SDS011;58704;53.358;-6.238;2023-06-22T07:45:03;5.53;;;4.30;;
71048;SDS011;58704;53.358;-6.238;2023-06-22T07:47:29;5.93;;;4.10;;
71048;SDS011;58704;53.358;-6.238;2023-06-22T07:49:58;4.65;;;3.97;;
71048;SDS011;58704;53.358;-6.238;2023-06-22T07:52:26;5.93;;;3.97;;
71048;SDS011;58704;53.358;-6.238;2023-06-22T07:54:51;4.67;;;3.70;;
71048;SDS011;58704;53.358;-6.238;2023-06-22T07:57:17;7.40;;;3.87;;
71048;SDS011;58704;53.358;-6.238;2023-06-22T07:59:42;4.75;;;3.55;;
71048;SDS011;58704;53.358;-6.238;2023-06-22T08:02:08;6.70;;;4.30;;
71048;SDS011;58704;53.358;-6.238;2023-06-22T08:04:34;5.80;;;3.55;;
71048;SDS011;58704;53.358;-6.238;2023-06-22T08:07:00;8.03;;;3.80;;
71048;SDS011;58704;53.358;-6.238;2023-06-22T08:09:27;7.00;;;4.07;;
71048;SDS011;58704;53.358;-6.238;2023-06-22T08:11:53;5.90;;;4.10;;
71048;SDS011;58704;53.358;-6.238;2023-06-22T08:14:20;5.30;;;4.20;;
71048;SDS011;58704;53.358;-6.238;2023-06-22T08:16:46;6.28;;;3.83;;
71048;SDS011;58704;53.358;-6.238;2023-06-22T08:19:11;5.93;;;3.63;;
71048;SDS011;58704;53.358;-6.238;2023-06-22T08:21:36;5.80;;;3.73;;
71048;SDS011;58704;53.358;-6.238;2023-06-22T08:24:02;8.70;;;4.00;;
71048;SDS011;58704;53.358;-6.238;2023-06-22T08:26:28;7.50;;;3.80;;
71048;SDS011;58704;53.358;-6.238;2023-06-22T08:28:53;8.13;;;4.05;;
71048;SDS011;58704;53.358;-6.238;2023-06-22T08:31:19;9.27;;;3.70;;
71048;SDS011;58704;53.358;-6.238;2023-06-22T08:33:44;7.53;;;3.70;;
71048;SDS011;58704;53.358;-6.238;2023-06-22T08:36:11;6.97;;;4.20;;
71048;SDS011;58704;53.358;-6.238;2023-06-22T08:38:38;7.18;;;4.18;;
71048;SDS011;58704;53.358;-6.238;2023-06-22T08:41:03;6.93;;;3.87;;
71048;SDS011;58704;53.358;-6.238;2023-06-22T08:43:29;6.25;;;3.95;;
71048;SDS011;58704;53.358;-6.238;2023-06-22T08:45:54;6.00;;;4.33;;
71048;SDS011;58704;53.358;-6.238;2023-06-22T08:48:19;5.87;;;3.60;;
71048;SDS011;58704;53.358;-6.238;2023-06-22T08:50:45;8.30;;;4.43;;
71048;SDS011;58704;53.358;-6.238;2023-06-22T08:53:10;6.50;;;4.30;;
71048;SDS011;58704;53.358;-6.238;2023-06-22T08:55:36;3.58;;;3.17;;
71048;SDS011;58704;53.358;-6.238;2023-06-22T08:58:01;5.87;;;3.77;;
71048;SDS011;58704;53.358;-6.238;2023-06-22T09:00:27;5.97;;;4.10;;
71048;SDS011;58704;53.358;-6.238;2023-06-22T09:02:54;7.38;;;4.20;;
71048;SDS011;58704;53.358;-6.238;2023-06-22T09:05:23;7.15;;;3.75;;
71048;SDS011;58704;53.358;-6.238;2023-06-22T09:07:50;7.63;;;4.35;;
71048;SDS011;58704;53.358;-6.238;2023-06-22T09:10:15;5.67;;;4.30;;
71048;SDS011;58704;53.358;-6.238;2023-06-22T09:12:44;7.80;;;4.47;;
71048;SDS011;58704;53.358;-6.238;2023-06-22T09:15:09;9.13;;;4.53;;
71048;SDS011;58704;53.358;-6.238;2023-06-22T09:17:35;8.13;;;4.30;;
71048;SDS011;58704;53.358;-6.238;2023-06-22T09:20:01;10.53;;;4.30;;
71048;SDS011;58704;53.358;-6.238;2023-06-22T09:22:30;5.55;;;3.97;;
71048;SDS011;58704;53.358;-6.238;2023-06-22T09:24:56;6.30;;;4.03;;
71048;SDS011;58704;53.358;-6.238;2023-06-22T09:27:25;5.18;;;3.58;;
71048;SDS011;58704;53.358;-6.238;2023-06-22T09:29:50;5.07;;;3.53;;
71048;SDS011;58704;53.358;-6.238;2023-06-22T09:32:16;5.67;;;3.07;;
71048;SDS011;58704;53.358;-6.238;2023-06-22T09:34:41;7.23;;;3.93;;
71048;SDS011;58704;53.358;-6.238;2023-06-22T09:37:06;8.63;;;4.00;;
71048;SDS011;58704;53.358;-6.238;2023-06-22T09:39:32;6.57;;;3.53;;
71048;SDS011;58704;53.358;-6.238;2023-06-22T09:41:58;4.87;;;3.50;;
71048;SDS011;58704;53.358;-6.238;2023-06-22T09:44:24;6.65;;;4.38;;
71048;SDS011;58704;53.358;-6.238;2023-06-22T09:46:50;5.20;;;3.57;;
71048;SDS011;58704;53.358;-6.238;2023-06-22T09:49:15;7.97;;;3.70;;
71048;SDS011;58704;53.358;-6.238;2023-06-22T09:51:40;14.35;;;4.45;;
71048;SDS011;58704;53.358;-6.238;2023-06-22T09:54:06;9.73;;;3.97;;
71048;SDS011;58704;53.358;-6.238;2023-06-22T09:56:31;5.63;;;3.20;;
71048;SDS011;58704;53.358;-6.238;2023-06-22T09:58:57;14.43;;;3.27;;
71048;SDS011;58704;53.358;-6.238;2023-06-22T10:01:22;7.97;;;3.00;;
71048;SDS011;58704;53.358;-6.238;2023-06-22T10:03:48;6.17;;;2.80;;
71048;SDS011;58704;53.358;-6.238;2023-06-22T10:06:13;5.30;;;3.33;;
71048;SDS011;58704;53.358;-6.238;2023-06-22T10:08:39;5.90;;;3.00;;
71048;SDS011;58704;53.358;-6.238;2023-06-22T10:11:05;7.28;;;2.67;;
71048;SDS011;58704;53.358;-6.238;2023-06-22T10:13:31;7.40;;;3.10;;
71048;SDS011;58704;53.358;-6.238;2023-06-22T10:15:56;8.07;;;3.20;;
71048;SDS011;58704;53.358;-6.238;2023-06-22T10:18:22;5.83;;;3.03;;
71048;SDS011;58704;53.358;-6.238;2023-06-22T10:20:48;5.20;;;3.20;;
71048;SDS011;58704;53.358;-6.238;2023-06-22T10:23:15;5.78;;;2.72;;
71048;SDS011;58704;53.358;-6.238;2023-06-22T10:25:40;8.80;;;4.67;;
71048;SDS011;58704;53.358;-6.238;2023-06-22T10:28:06;8.97;;;3.33;;
71048;SDS011;58704;53.358;-6.238;2023-06-22T10:30:32;6.15;;;2.78;;
71048;SDS011;58704;53.358;-6.238;2023-06-22T10:32:57;6.77;;;3.20;;
71048;SDS011;58704;53.358;-6.238;2023-06-22T10:35:23;3.67;;;2.43;;
71048;SDS011;58704;53.358;-6.238;2023-06-22T10:37:48;4.97;;;3.07;;
71048;SDS011;58704;53.358;-6.238;2023-06-22T10:40:14;9.68;;;2.90;;
71048;SDS011;58704;53.358;-6.238;2023-06-22T10:42:41;7.63;;;2.67;;
71048;SDS011;58704;53.358;-6.238;2023-06-22T10:45:07;4.37;;;2.60;;
71048;SDS011;58704;53.358;-6.238;2023-06-22T10:47:33;5.07;;;2.80;;
71048;SDS011;58704;53.358;-6.238;2023-06-22T10:49:58;6.28;;;2.75;;
71048;SDS011;58704;53.358;-6.238;2023-06-22T10:52:24;3.97;;;2.50;;
71048;SDS011;58704;53.358;-6.238;2023-06-22T10:54:49;5.47;;;2.60;;
71048;SDS011;58704;53.358;-6.238;2023-06-22T10:57:15;5.40;;;2.60;;
71048;SDS011;58704;53.358;-6.238;2023-06-22T10:59:40;5.85;;;3.05;;
71048;SDS011;58704;53.358;-6.238;2023-06-22T11:02:05;6.90;;;3.03;;
71048;SDS011;58704;53.358;-6.238;2023-06-22T11:04:31;5.00;;;3.00;;
71048;SDS011;58704;53.358;-6.238;2023-06-22T11:06:56;3.80;;;2.80;;
71048;SDS011;58704;53.358;-6.238;2023-06-22T11:09:21;6.13;;;3.03;;
71048;SDS011;58704;53.358;-6.238;2023-06-22T11:11:47;4.25;;;2.88;;
71048;SDS011;58704;53.358;-6.238;2023-06-22T11:14:14;6.38;;;2.70;;
71048;SDS011;58704;53.358;-6.238;2023-06-22T11:16:39;7.83;;;3.30;;
71048;SDS011;58704;53.358;-6.238;2023-06-22T11:19:05;6.07;;;2.87;;
71048;SDS011;58704;53.358;-6.238;2023-06-22T11:21:31;6.85;;;3.03;;
71048;SDS011;58704;53.358;-6.238;2023-06-22T11:23:57;6.10;;;2.95;;
71048;SDS011;58704;53.358;-6.238;2023-06-22T11:26:23;5.43;;;3.10;;
71048;SDS011;58704;53.358;-6.238;2023-06-22T11:28:49;5.85;;;3.75;;
71048;SDS011;58704;53.358;-6.238;2023-06-22T11:31:14;8.63;;;3.83;;
71048;SDS011;58704;53.358;-6.238;2023-06-22T11:33:40;4.83;;;3.10;;
71048;SDS011;58704;53.358;-6.238;2023-06-22T11:36:05;5.83;;;3.60;;
71048;SDS011;58704;53.358;-6.238;2023-06-22T11:38:30;6.28;;;3.10;;
71048;SDS011;58704;53.358;-6.238;2023-06-22T11:40:57;4.57;;;2.73;;
71048;SDS011;58704;53.358;-6.238;2023-06-22T11:43:23;7.15;;;3.40;;
71048;SDS011;58704;53.358;-6.238;2023-06-22T11:45:48;6.07;;;3.53;;
71048;SDS011;58704;53.358;-6.238;2023-06-22T11:48:14;5.50;;;3.10;;
71048;SDS011;58704;53.358;-6.238;2023-06-22T11:50:39;6.53;;;4.03;;
71048;SDS011;58704;53.358;-6.238;2023-06-22T11:53:04;5.47;;;3.50;;
71048;SDS011;58704;53.358;-6.238;2023-06-22T11:55:30;7.37;;;4.40;;
71048;SDS011;58704;53.358;-6.238;2023-06-22T11:57:56;5.63;;;3.90;;
71048;SDS011;58704;53.358;-6.238;2023-06-22T12:00:23;6.22;;;4.40;;
71048;SDS011;58704;53.358;-6.238;2023-06-22T12:02:52;8.73;;;5.20;;
71048;SDS011;58704;53.358;-6.238;2023-06-22T12:05:19;5.87;;;4.30;;
71048;SDS011;58704;53.358;-6.238;2023-06-22T12:07:45;9.27;;;4.50;;
71048;SDS011;58704;53.358;-6.238;2023-06-22T12:10:11;5.00;;;3.50;;
71048;SDS011;58704;53.358;-6.238;2023-06-22T12:12:36;9.55;;;4.82;;
71048;SDS011;58704;53.358;-6.238;2023-06-22T12:15:02;7.77;;;4.60;;
71048;SDS011;58704;53.358;-6.238;2023-06-22T12:17:29;8.82;;;5.50;;
71048;SDS011;58704;53.358;-6.238;2023-06-22T12:19:54;9.75;;;4.80;;
71048;SDS011;58704;53.358;-6.238;2023-06-22T12:22:20;9.03;;;5.30;;
71048;SDS011;58704;53.358;-6.238;2023-06-22T12:24:45;8.53;;;5.07;;
71048;SDS011;58704;53.358;-6.238;2023-06-22T12:27:11;9.13;;;5.03;;
71048;SDS011;58704;53.358;-6.238;2023-06-22T12:29:36;7.13;;;4.60;;
71048;SDS011;58704;53.358;-6.238;2023-06-22T12:32:01;5.20;;;4.30;;
71048;SDS011;58704;53.358;-6.238;2023-06-22T12:34:27;5.27;;;3.67;;
71048;SDS011;58704;53.358;-6.238;2023-06-22T12:36:52;7.83;;;4.70;;
71048;SDS011;58704;53.358;-6.238;2023-06-22T12:39:19;9.85;;;4.03;;
71048;SDS011;58704;53.358;-6.238;2023-06-22T12:41:45;6.17;;;3.80;;
71048;SDS011;58704;53.358;-6.238;2023-06-22T12:44:10;9.20;;;4.43;;
71048;SDS011;58704;53.358;-6.238;2023-06-22T12:46:36;7.47;;;4.07;;
71048;SDS011;58704;53.358;-6.238;2023-06-22T12:49:03;5.95;;;4.10;;
71048;SDS011;58704;53.358;-6.238;2023-06-22T12:51:29;5.30;;;4.00;;
71048;SDS011;58704;53.358;-6.238;2023-06-22T12:53:54;6.63;;;4.20;;
71048;SDS011;58704;53.358;-6.238;2023-06-22T12:56:20;5.03;;;4.50;;
71048;SDS011;58704;53.358;-6.238;2023-06-22T12:58:45;4.90;;;4.10;;
71048;SDS011;58704;53.358;-6.238;2023-06-22T13:01:11;4.13;;;3.73;;
71048;SDS011;58704;53.358;-6.238;2023-06-22T13:03:36;7.93;;;4.80;;
71048;SDS011;58704;53.358;-6.238;2023-06-22T13:06:02;8.57;;;5.82;;
71048;SDS011;58704;53.358;-6.238;2023-06-22T13:08:28;8.60;;;6.90;;
71048;SDS011;58704;53.358;-6.238;2023-06-22T13:10:54;14.00;;;8.13;;
71048;SDS011;58704;53.358;-6.238;2023-06-22T13:13:21;9.68;;;7.68;;
71048;SDS011;58704;53.358;-6.238;2023-06-22T13:15:49;10.53;;;7.13;;
71048;SDS011;58704;53.358;-6.238;2023-06-22T13:18:14;5.75;;;4.80;;
71048;SDS011;58704;53.358;-6.238;2023-06-22T13:20:40;11.83;;;6.87;;
71048;SDS011;58704;53.358;-6.238;2023-06-22T13:23:05;11.53;;;7.47;;
71048;SDS011;58704;53.358;-6.238;2023-06-22T13:25:31;7.83;;;6.60;;
71048;SDS011;58704;53.358;-6.238;2023-06-22T13:27:56;9.90;;;5.97;;
71048;SDS011;58704;53.358;-6.238;2023-06-22T13:30:21;8.40;;;5.35;;
71048;SDS011;58704;53.358;-6.238;2023-06-22T13:32:47;9.57;;;5.87;;
71048;SDS011;58704;53.358;-6.238;2023-06-22T13:35:12;10.03;;;5.90;;
71048;SDS011;58704;53.358;-6.238;2023-06-22T13:37:38;8.93;;;6.00;;
71048;SDS011;58704;53.358;-6.238;2023-06-22T13:40:04;9.07;;;5.90;;
71048;SDS011;58704;53.358;-6.238;2023-06-22T13:42:31;9.63;;;6.10;;
71048;SDS011;58704;53.358;-6.238;2023-06-22T13:44:57;13.00;;;5.90;;
71048;SDS011;58704;53.358;-6.238;2023-06-22T13:47:23;9.50;;;5.82;;
71048;SDS011;58704;53.358;-6.238;2023-06-22T13:49:48;10.93;;;6.60;;
71048;SDS011;58704;53.358;-6.238;2023-06-22T13:52:14;9.70;;;6.90;;
71048;SDS011;58704;53.358;-6.238;2023-06-22T13:54:39;11.83;;;6.67;;
71048;SDS011;58704;53.358;-6.238;2023-06-22T13:57:04;16.25;;;8.60;;
71048;SDS011;58704;53.358;-6.238;2023-06-22T13:59:30;15.50;;;9.07;;
71048;SDS011;58704;53.358;-6.238;2023-06-22T14:01:56;9.80;;;7.10;;
71048;SDS011;58704;53.358;-6.238;2023-06-22T14:04:22;8.83;;;5.83;;
71048;SDS011;58704;53.358;-6.238;2023-06-22T14:06:48;5.97;;;5.13;;
71048;SDS011;58704;53.358;-6.238;2023-06-22T14:09:14;10.93;;;7.10;;
71048;SDS011;58704;53.358;-6.238;2023-06-22T14:11:39;12.03;;;6.57;;
71048;SDS011;58704;53.358;-6.238;2023-06-22T14:14:05;10.07;;;6.32;;
71048;SDS011;58704;53.358;-6.238;2023-06-22T14:16:30;10.83;;;5.70;;
71048;SDS011;58704;53.358;-6.238;2023-06-22T14:18:55;5.37;;;4.30;;
71048;SDS011;58704;53.358;-6.238;2023-06-22T14:21:21;4.30;;;3.70;;
71048;SDS011;58704;53.358;-6.238;2023-06-22T14:23:46;8.70;;;6.00;;
71048;SDS011;58704;53.358;-6.238;2023-06-22T14:26:14;9.95;;;5.97;;
71048;SDS011;58704;53.358;-6.238;2023-06-22T14:28:42;8.18;;;4.85;;
71048;SDS011;58704;53.358;-6.238;2023-06-22T14:31:15;10.15;;;5.22;;
71048;SDS011;58704;53.358;-6.238;2023-06-22T14:33:44;6.45;;;4.82;;